Time;durP1;ratioP1;P1;durP2;ratioP2;P2;SDS_P1;SDS_P2;PMS_P1;PMS_P2;Temp;Humidity;BMP_temperature;BMP_pressure;BME280_temperature;BME280_humidity;BME280_pressure;Samples;Min_cycle;Max_cycle;Signal;HPM_P1;HPM_P2
2023/05/18 00:00:01;;;;;;;11.60;4.57;;;;;;;11.90;89.65;98174.66;4487575;32;20155;-80
2023/05/18 00:02:28;;;;;;;12.93;5.85;;;;;;;12.29;87.84;98166.81;4487364;32;20152;-80
2023/05/18 00:04:55;;;;;;;14.13;5.32;;;;;;;11.32;92.28;98169.50;4487690;32;20099;-80
2023/05/18 00:07:22;;;;;;;13.52;4.90;;;;;;;11.75;91.16;98171.03;4487651;32;20097;-80
2023/05/18 00:09:49;;;;;;;13.38;5.03;;;;;;;11.65;90.74;98180.94;4487165;31;20101;-80
2023/05/18 00:12:16;;;;;;;12.60;5.32;;;;;;;11.63;91.33;98176.75;4487712;32;20430;-80
2023/05/18 00:14:43;;;;;;;10.35;4.57;;;;;;;11.64;91.66;98183.59;4487323;32;20118;-80
2023/05/18 00:17:10;;;;;;;11.65;5.65;;;;;;;11.51;92.74;98176.38;4487248;32;20126;-80
2023/05/18 00:19:37;;;;;;;12.15;5.75;;;;;;;11.11;94.30;98184.19;4487494;32;20102;-80
2023/05/18 00:22:06;;;;;;;13.25;5.68;;;;;;;10.78;98.34;98176.12;4487571;32;20080;-80
2023/05/18 00:24:33;;;;;;;14.27;5.40;;;;;;;11.39;94.49;98179.53;4487289;32;20084;-80
2023/05/18 00:27:02;;;;;;;13.70;5.95;;;;;;;10.92;96.55;98179.78;4487555;32;20111;-80
2023/05/18 00:29:29;;;;;;;14.80;5.15;;;;;;;11.57;93.96;98181.25;4487017;31;20163;-80
2023/05/18 00:31:56;;;;;;;13.40;6.05;;;;;;;11.58;92.30;98184.69;4487556;32;20084;-80
2023/05/18 00:34:23;;;;;;;16.23;6.68;;;;;;;11.15;95.03;98183.12;4487488;32;20521;-80
2023/05/18 00:36:50;;;;;;;15.38;6.93;;;;;;;11.20;95.73;98183.81;4487074;32;20101;-80
2023/05/18 00:39:17;;;;;;;14.30;6.60;;;;;;;11.39;95.02;98182.09;4487292;32;20084;-80
2023/05/18 00:41:44;;;;;;;16.23;6.25;;;;;;;11.53;94.52;98184.91;4487332;32;20427;-80
2023/05/18 00:44:11;;;;;;;12.82;5.93;;;;;;;11.69;93.12;98184.22;4487135;32;20110;-80
2023/05/18 00:46:38;;;;;;;13.77;4.78;;;;;;;11.17;95.94;98179.59;4473248;32;20100;-80
2023/05/18 00:49:05;;;;;;;12.75;5.25;;;;;;;11.22;96.11;98187.16;4487144;32;20107;-80
2023/05/18 00:51:32;;;;;;;14.87;6.80;;;;;;;10.82;98.20;98191.41;4486904;32;20110;-80
2023/05/18 00:54:01;;;;;;;14.70;6.80;;;;;;;10.59;100.00;98194.94;4473086;32;20447;-80
2023/05/18 00:56:32;;;;;;;13.90;6.78;;;;;;;10.75;99.55;98186.59;4473002;32;20488;-80
2023/05/18 00:59:01;;;;;;;13.85;5.78;;;;;;;11.01;98.22;98184.56;4486765;31;20093;-80
2023/05/18 01:01:33;;;;;;;15.40;6.72;;;;;;;11.00;97.20;98188.06;4487353;32;20076;-80
2023/05/18 01:04:02;;;;;;;15.80;5.20;;;;;;;10.85;98.61;98187.87;4487295;32;20096;-80
2023/05/18 01:06:34;;;;;;;16.48;6.95;;;;;;;10.84;99.10;98188.75;4486739;32;20100;-80
2023/05/18 01:09:04;;;;;;;15.60;6.93;;;;;;;10.78;98.80;98194.19;4473433;32;20084;-80
2023/05/18 01:11:39;;;;;;;14.90;6.53;;;;;;;10.45;100.00;98188.66;4472659;32;20164;-80
2023/05/18 01:14:30;;;;;;;12.25;6.10;;;;;;;10.88;100.00;98192.91;4486773;32;20111;-80
2023/05/18 01:17:23;;;;;;;16.87;7.10;;;;;;;10.85;99.80;98193.03;4487001;32;20104;-80
2023/05/18 01:20:07;;;;;;;14.38;6.45;;;;;;;10.91;99.22;98187.59;4486535;32;20092;-80
2023/05/18 01:22:55;;;;;;;13.77;6.62;;;;;;;11.15;97.60;98190.88;4486953;32;20139;-80
2023/05/18 01:25:41;;;;;;;14.90;5.95;;;;;;;11.26;97.20;98186.09;4486998;32;20114;-80
2023/05/18 01:28:13;;;;;;;16.62;6.20;;;;;;;10.62;100.00;98179.31;4486705;32;20128;-80
2023/05/18 01:30:41;;;;;;;13.73;6.60;;;;;;;10.81;99.15;98183.72;4472694;32;20102;-80
2023/05/18 01:33:09;;;;;;;14.55;5.97;;;;;;;11.19;96.45;98184.72;4486445;32;20081;-81
2023/05/18 01:35:37;;;;;;;15.55;6.43;;;;;;;11.12;97.19;98180.69;4486624;32;20088;-80
2023/05/18 01:38:03;;;;;;;17.25;6.85;;;;;;;11.33;96.26;98192.69;4486556;32;20167;-81
2023/05/18 01:40:34;;;;;;;15.82;6.37;;;;;;;12.27;89.91;98197.09;4486385;32;20111;-80
2023/05/18 01:43:10;;;;;;;17.70;6.60;;;;;;;11.71;91.78;98197.94;4472437;32;20146;-80
2023/05/18 01:45:40;;;;;;;14.30;5.90;;;;;;;12.88;84.50;98212.25;4472582;32;20113;-81
2023/05/18 01:48:08;;;;;;;14.80;6.37;;;;;;;12.60;86.30;98207.59;4471991;32;20095;-80
2023/05/18 01:50:39;;;;;;;14.85;6.07;;;;;;;12.71;85.53;98211.31;4486561;32;20084;-80
2023/05/18 01:53:17;;;;;;;14.90;5.93;;;;;;;12.58;86.50;98218.00;4472443;32;20084;-80
2023/05/18 01:55:45;;;;;;;14.15;6.50;;;;;;;12.21;88.68;98215.47;4486046;32;20092;-80
2023/05/18 01:58:12;;;;;;;15.25;6.05;;;;;;;12.91;83.87;98215.53;4472135;32;20495;-80
2023/05/18 02:00:39;;;;;;;16.05;6.35;;;;;;;12.24;87.23;98212.75;4472027;32;20108;-80
2023/05/18 02:03:06;;;;;;;17.80;6.30;;;;;;;12.19;87.30;98210.37;4486337;32;20152;-81
2023/05/18 02:05:33;;;;;;;12.82;6.05;;;;;;;11.72;91.56;98205.59;4486323;32;20097;-80
2023/05/18 02:08:00;;;;;;;18.35;6.15;;;;;;;11.65;91.28;98204.19;4485791;32;20171;-80
2023/05/18 02:10:27;;;;;;;18.60;6.40;;;;;;;12.02;89.91;98218.09;4486232;32;20416;-80
2023/05/18 02:12:54;;;;;;;12.18;5.28;;;;;;;11.19;93.61;98221.69;4486319;32;20101;-81
2023/05/18 02:15:21;;;;;;;13.70;6.40;;;;;;;11.25;95.77;98213.69;4485495;32;20164;-80
2023/05/18 02:17:48;;;;;;;13.43;6.45;;;;;;;10.97;96.71;98208.03;4486022;32;20737;-80
2023/05/18 02:20:18;;;;;;;13.35;6.10;;;;;;;10.57;98.30;98214.81;4486083;32;20103;-80
2023/05/18 02:22:45;;;;;;;14.00;6.40;;;;;;;11.08;96.01;98213.56;4488041;32;20111;-80
2023/05/18 02:25:12;;;;;;;12.98;5.93;;;;;;;11.54;93.70;98211.59;4488381;32;20588;-81
2023/05/18 02:27:39;;;;;;;15.93;7.35;;;;;;;11.74;91.43;98206.38;4488406;31;20149;-80
2023/05/18 02:30:07;;;;;;;13.82;6.60;;;;;;;11.52;92.91;98211.66;4487928;32;20164;-80
2023/05/18 02:32:38;;;;;;;15.98;6.40;;;;;;;11.57;91.29;98217.44;4488351;32;20099;-80
2023/05/18 02:35:06;;;;;;;14.48;6.25;;;;;;;12.21;88.92;98216.31;4488405;32;20092;-80
2023/05/18 02:37:38;;;;;;;14.18;6.18;;;;;;;11.78;90.43;98218.25;4487907;32;20083;-80
2023/05/18 02:40:09;;;;;;;13.68;5.57;;;;;;;12.40;87.88;98213.72;4488326;32;20093;-81
2023/05/18 02:42:36;;;;;;;13.95;6.30;;;;;;;12.15;88.33;98208.84;4488326;32;20072;-80
2023/05/18 02:45:03;;;;;;;16.50;6.93;;;;;;;11.92;nan;98216.84;4487967;32;20096;-80
2023/05/18 02:47:30;;;;;;;13.68;5.90;;;;;;;11.59;91.65;98213.06;4487264;32;35377;-80
2023/05/18 02:49:57;;;;;;;13.77;5.75;;;;;;;11.97;89.54;98213.12;4487587;32;20112;-80
2023/05/18 02:52:24;;;;;;;16.98;6.22;;;;;;;11.63;90.47;98210.34;4488224;32;20080;-80
2023/05/18 02:54:53;;;;;;;17.08;6.25;;;;;;;11.44;92.29;98210.31;4488131;32;20111;-81
2023/05/18 02:57:21;;;;;;;14.27;6.28;;;;;;;10.81;94.58;98212.97;4473596;32;20114;-80
2023/05/18 02:59:48;;;;;;;13.75;6.05;;;;;;;11.39;92.78;98212.25;4488005;31;20107;-80
2023/05/18 03:02:15;;;;;;;17.45;7.07;;;;;;;11.66;90.74;98215.38;4488241;32;20115;-81
2023/05/18 03:04:42;;;;;;;13.55;6.40;;;;;;;12.41;87.41;98223.13;4487776;32;20443;-81
2023/05/18 03:07:09;;;;;;;13.07;6.60;;;;;;;11.87;88.88;98228.19;4488070;32;20096;-80
2023/05/18 03:09:36;;;;;;;16.10;7.00;;;;;;;12.81;84.39;98224.66;4487836;32;20149;-81
2023/05/18 03:12:04;;;;;;;15.48;6.95;;;;;;;12.44;85.33;98223.84;4487612;32;20110;-80
2023/05/18 03:14:31;;;;;;;17.35;6.80;;;;;;;12.47;85.24;98234.97;4487678;32;20116;-81
2023/05/18 03:16:57;;;;;;;14.32;6.12;;;;;;;12.84;83.14;98229.69;4487864;32;20160;-81
2023/05/18 03:19:26;;;;;;;13.55;6.57;;;;;;;13.23;81.45;98237.25;4487580;32;20092;-81
2023/05/18 03:21:53;;;;;;;15.20;6.40;;;;;;;12.91;81.98;98238.84;4488038;32;20125;-81
2023/05/18 03:24:20;;;;;;;13.25;6.07;;;;;;;13.07;81.99;98236.31;4473805;32;20104;-80
2023/05/18 03:26:47;;;;;;;14.73;7.15;;;;;;;12.45;84.28;98246.22;4487681;32;20096;-80
2023/05/18 03:29:14;;;;;;;15.95;6.70;;;;;;;12.42;84.47;98242.94;4487851;31;20080;-80
2023/05/18 03:31:42;;;;;;;16.10;6.50;;;;;;;12.40;85.62;98242.16;4487828;32;20110;-80
2023/05/18 03:34:09;;;;;;;13.90;6.47;;;;;;;12.57;83.92;98252.56;4473546;32;20100;-80
2023/05/18 03:36:37;;;;;;;17.40;6.57;;;;;;;12.53;84.45;98250.19;4487790;32;20618;-80
2023/05/18 03:39:07;;;;;;;13.82;6.43;;;;;;;12.48;84.53;98260.78;4487524;31;20126;-80
2023/05/18 03:41:34;;;;;;;16.10;6.45;;;;;;;12.64;82.88;98264.28;4487855;32;20072;-80
2023/05/18 03:44:01;;;;;;;13.88;6.07;;;;;;;12.84;82.38;98263.34;4487813;32;20135;-80
2023/05/18 03:46:28;;;;;;;13.30;5.62;;;;;;;12.62;84.21;98263.53;4487479;32;20100;-80
2023/05/18 03:48:55;;;;;;;18.60;6.95;;;;;;;11.85;87.00;98255.87;4487691;32;20413;-80
2023/05/18 03:51:22;;;;;;;12.57;6.03;;;;;;;12.48;84.57;98262.53;4487805;32;20089;-80
2023/05/18 03:53:49;;;;;;;17.67;6.37;;;;;;;11.93;87.93;98260.72;4488194;32;20114;-80
2023/05/18 03:56:16;;;;;;;15.38;6.20;;;;;;;12.31;85.42;98258.94;4488571;32;20108;-80
2023/05/18 03:58:44;;;;;;;14.15;6.18;;;;;;;11.86;87.51;98270.47;4473907;32;20443;-80
2023/05/18 04:01:11;;;;;;;19.00;6.90;;;;;;;12.47;85.47;98263.44;4488175;32;20133;-80
2023/05/18 04:03:39;;;;;;;14.70;6.40;;;;;;;12.84;81.89;98268.53;4488261;32;20154;-80
2023/05/18 04:06:09;;;;;;;13.45;6.12;;;;;;;12.23;85.48;98265.38;4488145;32;20395;-81
2023/05/18 04:08:36;;;;;;;14.90;6.07;;;;;;;11.90;87.82;98271.16;4487308;31;20096;-81
2023/05/18 04:11:03;;;;;;;12.85;6.57;;;;;;;12.51;83.85;98268.38;4487962;32;20115;-81
2023/05/18 04:13:30;;;;;;;14.73;6.40;;;;;;;11.58;88.04;98273.38;4487843;32;20556;-81
2023/05/18 04:15:57;;;;;;;15.88;6.47;;;;;;;11.91;88.18;98274.59;4487390;32;20104;-81
2023/05/18 04:18:28;;;;;;;14.48;6.32;;;;;;;12.41;85.66;98269.72;4487777;31;20159;-81
2023/05/18 04:20:56;;;;;;;14.10;6.20;;;;;;;12.36;84.82;98276.88;4487878;32;20435;-81
2023/05/18 04:23:22;;;;;;;17.27;6.12;;;;;;;12.04;86.86;98270.59;4488209;32;20149;-81
2023/05/18 04:25:49;;;;;;;13.70;6.10;;;;;;;11.44;90.22;98274.91;4488197;32;20447;-81
2023/05/18 04:28:16;;;;;;;18.40;6.30;;;;;;;11.56;91.04;98282.97;4487692;32;20100;-82
2023/05/18 04:30:44;;;;;;;16.30;6.65;;;;;;;11.80;90.08;98283.69;4488095;32;20102;-81
2023/05/18 04:33:14;;;;;;;16.17;6.20;;;;;;;11.46;91.10;98281.66;4488088;32;20458;-82
2023/05/18 04:35:43;;;;;;;11.77;5.75;;;;;;;11.52;91.69;98288.34;4487685;32;20397;-81
2023/05/18 04:38:10;;;;;;;12.77;6.00;;;;;;;11.65;90.21;98288.66;4487900;32;20092;-81
2023/05/18 04:40:41;;;;;;;14.87;6.93;;;;;;;11.82;90.16;98283.63;4488238;32;20156;-81
2023/05/18 04:43:09;;;;;;;12.15;5.78;;;;;;;11.94;89.75;98283.06;4487385;32;20092;-81
2023/05/18 04:45:35;;;;;;;16.08;6.47;;;;;;;11.99;87.98;98286.28;4487567;32;20104;-82
2023/05/18 04:48:02;;;;;;;13.95;6.68;;;;;;;12.04;87.59;98284.34;4487662;32;20111;-81
2023/05/18 04:50:29;;;;;;;14.80;6.32;;;;;;;12.18;87.84;98288.88;4487358;32;20427;-81
2023/05/18 04:53:00;;;;;;;14.95;6.47;;;;;;;11.79;89.33;98289.75;4487519;32;20530;-81
2023/05/18 04:55:29;;;;;;;15.80;6.32;;;;;;;12.60;85.62;98296.44;4487569;32;20092;-81
2023/05/18 04:57:58;;;;;;;14.90;6.68;;;;;;;12.56;85.37;98294.06;4486985;32;20444;-81
2023/05/18 05:00:27;;;;;;;13.80;6.85;;;;;;;12.94;82.51;98295.66;4487383;32;20081;-82
2023/05/18 05:02:55;;;;;;;14.07;6.22;;;;;;;13.00;82.49;98300.56;4487498;32;20101;-82
2023/05/18 05:05:24;;;;;;;13.32;6.32;;;;;;;13.41;80.08;98300.31;4487252;32;20130;-81
2023/05/18 05:07:52;;;;;;;16.37;5.97;;;;;;;12.04;86.83;98304.19;4487382;31;20142;-81
2023/05/18 05:10:19;;;;;;;16.08;6.55;;;;;;;12.92;83.49;98302.66;4487845;32;20118;-81
2023/05/18 05:12:48;;;;;;;16.08;6.62;;;;;;;12.76;84.88;98301.75;4473449;32;20100;-82
2023/05/18 05:15:16;;;;;;;14.85;6.55;;;;;;;12.73;85.31;98302.69;4486955;32;20447;-84
2023/05/18 05:17:45;;;;;;;12.65;5.82;;;;;;;13.54;80.91;98310.88;4486366;32;20102;-84
2023/05/18 05:20:12;;;;;;;13.77;5.85;;;;;;;12.43;85.78;98306.72;4486877;32;20153;-84
2023/05/18 05:22:38;;;;;;;14.07;6.00;;;;;;;11.80;88.87;98312.12;4486940;32;20104;-84
2023/05/18 05:25:06;;;;;;;15.65;6.87;;;;;;;12.18;90.38;98311.34;4486561;32;20503;-84
2023/05/18 05:27:33;;;;;;;12.98;5.95;;;;;;;12.07;91.21;98309.22;4472677;32;20156;-84
2023/05/18 05:30:00;;;;;;;15.25;6.60;;;;;;;12.73;87.93;98310.47;4486745;32;20128;-84
2023/05/18 05:32:27;;;;;;;13.07;6.37;;;;;;;12.15;91.95;98314.91;4486342;32;20097;-84
2023/05/18 05:34:54;;;;;;;13.13;6.22;;;;;;;12.87;86.18;98320.19;4486766;32;20456;-84
2023/05/18 05:37:21;;;;;;;15.43;6.18;;;;;;;12.62;87.66;98322.22;4486582;32;20085;-84
2023/05/18 05:39:48;;;;;;;13.95;5.80;;;;;;;12.53;88.81;98320.06;4486119;32;20088;-84
2023/05/18 05:42:15;;;;;;;15.60;6.22;;;;;;;12.79;87.75;98313.69;4486672;32;20487;-84
2023/05/18 05:44:42;;;;;;;15.25;6.30;;;;;;;13.39;83.38;98316.81;4486523;32;20439;-84
2023/05/18 05:47:09;;;;;;;16.87;6.40;;;;;;;12.77;86.39;98323.28;4486122;32;20092;-84
2023/05/18 05:49:36;;;;;;;15.10;6.18;;;;;;;12.62;87.53;98328.25;4486445;31;20068;-84
2023/05/18 05:52:03;;;;;;;12.57;6.18;;;;;;;13.08;84.78;98326.09;4486464;32;20471;-84
2023/05/18 05:54:32;;;;;;;21.05;6.22;;;;;;;13.19;84.51;98328.19;4481864;32;20167;-84
2023/05/18 05:57:02;;;;;;;11.63;6.30;;;;;;;13.85;79.12;98330.91;4485939;32;20526;-83
2023/05/18 05:59:29;;;;;;;13.43;6.37;;;;;;;13.60;81.44;98333.88;4486803;32;20088;-83
2023/05/18 06:01:56;;;;;;;12.63;5.85;;;;;;;13.46;80.69;98336.34;4487771;32;20152;-83
2023/05/18 06:04:23;;;;;;;13.50;5.22;;;;;;;13.56;79.74;98329.78;4487718;32;20087;-82
2023/05/18 06:06:50;;;;;;;14.52;6.00;;;;;;;12.13;86.11;98337.41;4487472;32;20096;-83
2023/05/18 06:09:17;;;;;;;13.35;5.53;;;;;;;12.21;87.69;98337.88;4487029;32;20092;-83
2023/05/18 06:11:44;;;;;;;13.68;5.55;;;;;;;13.07;81.37;98332.16;4487656;32;20106;-83
2023/05/18 06:14:11;;;;;;;14.60;5.93;;;;;;;12.59;85.54;98331.00;4487330;32;20119;-83
2023/05/18 06:16:38;;;;;;;13.02;5.70;;;;;;;11.99;90.28;98338.00;4487570;32;20176;-83
2023/05/18 06:19:05;;;;;;;13.27;5.57;;;;;;;12.38;88.31;98335.41;4486665;32;20080;-83
2023/05/18 06:21:33;;;;;;;14.10;6.28;;;;;;;11.98;89.10;98341.50;4487694;32;20828;-83
2023/05/18 06:24:03;;;;;;;13.77;6.68;;;;;;;12.21;89.19;98324.97;4487492;32;20135;-83
2023/05/18 06:26:31;;;;;;;14.57;5.40;;;;;;;12.46;87.84;98340.22;4487784;32;20111;-83
2023/05/18 06:28:58;;;;;;;13.98;5.95;;;;;;;12.09;89.63;98348.78;4486355;32;20181;-83
2023/05/18 06:31:25;;;;;;;14.98;6.45;;;;;;;11.80;91.41;98352.63;4487724;32;20088;-83
2023/05/18 06:33:55;;;;;;;11.68;5.32;;;;;;;12.50;87.61;98344.34;4487622;32;20092;-83
2023/05/18 06:36:22;;;;;;;13.98;6.95;;;;;;;12.69;85.05;98347.78;4487432;32;20364;-83
2023/05/18 06:38:48;;;;;;;12.50;5.72;;;;;;;13.40;82.22;98344.41;4486712;32;20439;-83
2023/05/18 06:41:15;;;;;;;14.18;5.93;;;;;;;13.15;83.00;98352.53;4487395;32;20110;-83
2023/05/18 06:43:42;;;;;;;13.43;5.75;;;;;;;13.25;81.38;98365.00;4487463;32;20164;-84
2023/05/18 06:46:20;;;;;;;13.25;5.70;;;;;;;13.74;80.04;98347.03;4487483;32;20116;-84
2023/05/18 06:48:47;;;;;;;14.30;6.18;;;;;;;13.88;78.76;98357.53;4487266;32;20439;-85
2023/05/18 06:51:15;;;;;;;13.45;6.03;;;;;;;14.43;76.54;98356.38;4488762;32;20133;-88
2023/05/18 06:53:42;;;;;;;13.00;6.00;;;;;;;13.88;78.63;98356.69;4493798;32;20108;-87
2023/05/18 06:56:11;;;;;;;12.57;5.50;;;;;;;14.43;76.45;98357.22;4473248;32;20110;-81
2023/05/18 06:58:40;;;;;;;11.60;5.43;;;;;;;14.36;75.75;98363.69;4486367;32;20084;-80
2023/05/18 07:01:07;;;;;;;14.75;5.20;;;;;;;14.00;78.63;98363.00;4487455;32;20089;-82
2023/05/18 07:03:34;;;;;;;14.00;5.50;;;;;;;14.03;77.84;98357.63;4491071;32;20076;-83
2023/05/18 07:06:04;;;;;;;15.35;5.07;;;;;;;14.25;76.93;98362.53;4490107;32;20076;-82
2023/05/18 07:08:32;;;;;;;12.18;5.87;;;;;;;14.23;76.36;98369.56;4486904;32;20077;-83
2023/05/18 07:11:01;;;;;;;14.30;5.87;;;;;;;13.80;80.04;98362.25;4487288;32;20105;-82
2023/05/18 07:13:28;;;;;;;11.73;5.28;;;;;;;13.61;80.05;98377.06;4487470;32;20140;-83
2023/05/18 07:15:55;;;;;;;12.02;5.20;;;;;;;13.49;80.47;98367.28;4485299;32;20497;-82
2023/05/18 07:18:22;;;;;;;13.60;5.35;;;;;;;13.72;82.02;98366.16;4471899;32;20571;-82
2023/05/18 07:20:49;;;;;;;12.43;5.35;;;;;;;13.44;82.62;98366.69;4487590;32;20092;-83
2023/05/18 07:23:16;;;;;;;12.82;5.53;;;;;;;13.48;82.33;98365.62;4488957;32;20114;-83
2023/05/18 07:25:43;;;;;;;12.80;5.43;;;;;;;13.31;81.42;98366.47;4491217;32;20088;-82
2023/05/18 07:28:10;;;;;;;12.13;5.32;;;;;;;13.40;82.13;98366.00;4489122;32;20148;-82
2023/05/18 07:30:37;;;;;;;12.98;5.55;;;;;;;14.11;79.28;98378.84;4488785;32;20106;-82
2023/05/18 07:33:04;;;;;;;11.88;5.50;;;;;;;13.76;81.25;98375.47;4487592;32;20175;-82
2023/05/18 07:35:31;;;;;;;12.02;5.57;;;;;;;14.38;78.10;98392.16;4487363;32;20112;-82
2023/05/18 07:37:58;;;;;;;13.45;5.50;;;;;;;14.38;78.10;98384.38;4486262;32;20112;-81
2023/05/18 07:40:25;;;;;;;13.93;5.82;;;;;;;14.15;78.51;98394.19;4487215;32;20412;-83
2023/05/18 07:42:52;;;;;;;12.85;5.45;;;;;;;13.76;81.85;98394.44;4487105;32;20114;-82
2023/05/18 07:45:20;;;;;;;12.50;5.43;;;;;;;14.47;78.31;98391.72;4488626;32;20108;-82
2023/05/18 07:47:47;;;;;;;13.98;5.95;;;;;;;14.67;76.91;98388.00;4492254;32;20065;-81
2023/05/18 07:50:14;;;;;;;11.57;5.50;;;;;;;13.82;80.89;98394.16;4488158;32;20111;-82
2023/05/18 07:52:41;;;;;;;13.82;5.47;;;;;;;14.39;78.89;98397.25;4488753;32;20096;-82
2023/05/18 07:55:08;;;;;;;11.20;5.37;;;;;;;14.46;78.80;98388.28;4495843;32;20152;-82
2023/05/18 07:57:35;;;;;;;15.85;6.00;;;;;;;13.84;82.34;98383.69;4494448;32;20111;-82
2023/05/18 08:00:07;;;;;;;12.27;5.20;;;;;;;14.40;78.63;98385.94;4493162;32;20124;-82
2023/05/18 08:02:34;;;;;;;12.80;5.00;;;;;;;14.74;77.66;98386.78;4493898;32;20052;-83
2023/05/18 08:05:02;;;;;;;10.27;4.68;;;;;;;14.30;81.68;98383.91;4492645;32;20084;-83
2023/05/18 08:07:31;;;;;;;12.65;5.10;;;;;;;14.49;78.29;98386.44;4477637;32;20454;-82
2023/05/18 08:09:58;;;;;;;11.85;5.57;;;;;;;14.15;80.43;98393.34;4487952;32;20096;-82
2023/05/18 08:12:25;;;;;;;11.75;4.93;;;;;;;14.56;79.35;98396.38;4489950;32;20151;-84
2023/05/18 08:14:52;;;;;;;10.23;4.43;;;;;;;15.07;77.02;98402.28;4491697;32;20099;-84
2023/05/18 08:17:19;;;;;;;10.52;4.90;;;;;;;14.41;78.11;98398.00;4486770;32;20143;-85
2023/05/18 08:19:47;;;;;;;14.75;5.12;;;;;;;14.47;79.61;98402.09;4484976;32;20374;-86
2023/05/18 08:22:14;;;;;;;10.00;4.68;;;;;;;14.53;78.04;98404.34;4486579;32;20087;-85
2023/05/18 08:24:41;;;;;;;10.35;4.28;;;;;;;14.75;78.70;98406.63;4486660;32;20171;-84
2023/05/18 08:27:10;;;;;;;8.75;4.07;;;;;;;15.19;75.53;98398.16;4473511;32;20085;-86
2023/05/18 08:29:37;;;;;;;10.48;3.80;;;;;;;15.13;75.99;98404.56;4476338;32;20160;-86
2023/05/18 08:32:06;;;;;;;9.02;3.78;;;;;;;15.30;74.99;98398.38;4491250;32;20167;-86
2023/05/18 08:34:34;;;;;;;8.38;4.07;;;;;;;15.59;73.46;98410.59;4487964;32;20105;-86
2023/05/18 08:37:01;;;;;;;9.23;4.18;;;;;;;14.49;79.05;98420.19;4491175;32;20077;-85
2023/05/18 08:39:30;;;;;;;9.45;3.97;;;;;;;14.46;78.68;98415.97;4464089;32;20123;-85
2023/05/18 08:42:15;;;;;;;9.45;4.28;;;;;;;14.08;81.00;98420.53;4476743;32;20072;-85
2023/05/18 08:44:48;;;;;;;9.50;4.00;;;;;;;14.26;80.20;98414.41;4473921;32;20118;-85
2023/05/18 08:47:16;;;;;;;9.48;4.12;;;;;;;13.43;85.50;98422.03;4488310;32;20098;-85
2023/05/18 08:49:45;;;;;;;10.18;4.18;;;;;;;13.66;84.85;98416.56;4485642;32;20149;-85
2023/05/18 08:52:18;;;;;;;10.40;3.90;;;;;;;13.31;85.91;98420.88;4473640;32;20115;-84
2023/05/18 08:54:50;;;;;;;9.73;4.40;;;;;;;13.81;84.61;98425.31;4474884;32;20064;-85
2023/05/18 08:57:19;;;;;;;8.23;4.03;;;;;;;14.40;81.72;98424.06;4474630;32;20110;-86
2023/05/18 08:59:48;;;;;;;9.45;4.07;;;;;;;14.19;81.95;98419.06;4459069;32;20122;-83
2023/05/18 09:02:15;;;;;;;9.27;3.92;;;;;;;14.40;80.95;98429.25;4472531;32;20152;-85
2023/05/18 09:04:43;;;;;;;10.60;4.10;;;;;;;14.53;80.18;98437.25;4473958;32;20156;-86
2023/05/18 09:07:12;;;;;;;8.32;3.67;;;;;;;14.18;81.34;98426.91;4478329;32;20110;-86
2023/05/18 09:09:39;;;;;;;9.20;4.15;;;;;;;14.10;83.20;98427.31;4476911;32;20072;-86
2023/05/18 09:12:07;;;;;;;10.52;4.68;;;;;;;14.72;79.12;98424.97;4490737;32;20065;-86
2023/05/18 09:14:34;;;;;;;9.52;3.78;;;;;;;14.23;80.13;98430.09;4489700;32;20119;-85
2023/05/18 09:17:02;;;;;;;12.20;4.30;;;;;;;14.63;79.75;98436.69;4487041;32;20574;-85
2023/05/18 09:19:29;;;;;;;9.48;4.53;;;;;;;14.71;79.13;98431.94;4485529;32;20104;-83
2023/05/18 09:21:55;;;;;;;9.32;4.03;;;;;;;14.21;81.06;98428.50;4486346;32;20084;-85
2023/05/18 09:24:22;;;;;;;11.18;4.55;;;;;;;14.72;79.48;98428.41;4486044;32;20084;-83
2023/05/18 09:26:50;;;;;;;10.38;4.15;;;;;;;14.17;82.77;98428.69;4472249;32;20494;-83
2023/05/18 09:29:19;;;;;;;8.57;4.07;;;;;;;14.52;81.45;98427.78;4472011;32;20105;-84
2023/05/18 09:31:47;;;;;;;10.77;4.20;;;;;;;14.90;79.60;98434.41;4488472;32;20126;-83
2023/05/18 09:34:14;;;;;;;9.20;4.20;;;;;;;15.07;79.40;98430.03;4488111;32;20153;-84
2023/05/18 09:36:45;;;;;;;9.35;4.53;;;;;;;14.85;79.60;98441.59;4488046;32;20102;-85
2023/05/18 09:39:12;;;;;;;12.37;4.28;;;;;;;14.40;81.36;98444.81;4473446;32;20164;-85
2023/05/18 09:41:40;;;;;;;9.73;4.18;;;;;;;15.21;77.82;98440.53;4487818;32;20111;-84
2023/05/18 09:44:11;;;;;;;9.63;4.28;;;;;;;14.93;80.13;98442.00;4488163;32;20144;-85
2023/05/18 09:46:39;;;;;;;11.02;4.78;;;;;;;14.88;79.52;98450.97;4487861;32;20106;-85
2023/05/18 09:49:06;;;;;;;10.90;4.85;;;;;;;14.89;79.25;98437.91;4486942;32;20100;-85
2023/05/18 09:51:35;;;;;;;10.35;4.65;;;;;;;14.68;80.35;98450.28;4487975;32;20097;-85
2023/05/18 09:54:05;;;;;;;10.07;4.40;;;;;;;15.52;76.52;98437.84;4487980;32;20088;-86
2023/05/18 09:56:35;;;;;;;11.12;4.40;;;;;;;15.37;76.69;98438.72;4487587;32;20092;-87
2023/05/18 09:59:13;;;;;;;10.55;4.62;;;;;;;15.09;78.29;98443.75;4486696;32;20096;-86
2023/05/18 10:02:01;;;;;;;10.15;4.50;;;;;;;14.29;81.21;98442.78;4487724;32;20104;-85
2023/05/18 10:04:37;;;;;;;9.07;4.22;;;;;;;14.34;82.50;98440.78;4487941;32;20085;-86
2023/05/18 10:07:20;;;;;;;10.38;4.47;;;;;;;15.42;78.81;98446.25;4473066;32;20390;-85
2023/05/18 10:10:02;;;;;;;8.95;3.65;;;;;;;15.57;76.33;98437.63;4487531;32;20431;-86
2023/05/18 10:12:35;;;;;;;;;;;;;;;15.63;76.52;98447.72;4487693;32;20092;-86
2023/05/18 10:15:02;;;;;;;11.15;4.22;;;;;;;15.36;77.94;98446.63;4473392;32;20038;-86
2023/05/18 10:17:31;;;;;;;9.77;4.50;;;;;;;15.77;75.62;98450.34;4487273;32;20081;-86
2023/05/18 10:19:59;;;;;;;10.05;4.30;;;;;;;14.96;80.29;98460.03;4478997;32;20155;-86
2023/05/18 10:22:26;;;;;;;9.13;4.10;;;;;;;15.11;79.60;98452.34;4472740;32;20224;-85
2023/05/18 10:24:55;;;;;;;9.23;4.10;;;;;;;15.05;79.46;98448.31;4471866;32;20088;-86
2023/05/18 10:27:34;;;;;;;9.60;4.57;;;;;;;14.58;81.17;98448.25;4475081;32;20114;-87
2023/05/18 10:30:13;;;;;;;8.48;3.92;;;;;;;14.97;78.64;98451.31;4479886;32;20112;-85
2023/05/18 10:32:41;;;;;;;9.25;4.35;;;;;;;14.91;80.42;98456.84;4472802;32;20085;-86
2023/05/18 10:35:12;;;;;;;8.50;3.80;;;;;;;15.26;78.62;98449.72;4474409;32;20553;-86
2023/05/18 10:37:42;;;;;;;9.27;3.90;;;;;;;15.34;77.39;98455.34;4473320;31;20150;-86
2023/05/18 10:40:11;;;;;;;8.48;3.97;;;;;;;15.52;78.12;98444.81;4473479;32;20122;-87
2023/05/18 10:42:38;;;;;;;9.05;4.03;;;;;;;15.44;78.02;98453.06;4477375;32;20092;-87
2023/05/18 10:45:06;;;;;;;9.82;3.80;;;;;;;15.77;78.53;98452.97;4473662;32;20175;-85
2023/05/18 10:47:38;;;;;;;10.05;3.85;;;;;;;16.43;74.22;98451.69;4473327;32;20110;-86
2023/05/18 10:50:06;;;;;;;10.63;3.92;;;;;;;16.24;74.67;98453.72;4471464;32;20120;-85
2023/05/18 10:52:33;;;;;;;11.60;3.50;;;;;;;16.24;74.82;98456.31;4460929;32;20514;-86
2023/05/18 10:55:03;;;;;;;9.60;3.35;;;;;;;15.72;77.90;98460.16;4462389;32;20114;-86
2023/05/18 10:57:40;;;;;;;7.35;3.30;;;;;;;15.99;77.21;98457.75;4476406;32;20108;-85
2023/05/18 11:00:09;;;;;;;8.18;3.47;;;;;;;14.83;81.76;98453.81;4472143;32;20120;-86
2023/05/18 11:02:41;;;;;;;8.70;3.97;;;;;;;15.03;82.87;98450.16;4477574;32;20081;-86
2023/05/18 11:05:09;;;;;;;9.18;4.00;;;;;;;14.87;85.65;98455.31;4475569;32;20093;-86
2023/05/18 11:07:37;;;;;;;7.57;3.37;;;;;;;14.83;85.36;98459.03;4474120;32;20472;-87
2023/05/18 11:10:09;;;;;;;8.80;3.58;;;;;;;15.24;82.83;98453.34;4485995;32;20438;-87
2023/05/18 11:12:37;;;;;;;8.88;3.35;;;;;;;14.86;84.92;98461.44;4484243;32;20601;-87
2023/05/18 11:15:04;;;;;;;8.85;3.67;;;;;;;15.32;83.37;98466.75;4476724;32;20088;-86
2023/05/18 11:17:31;;;;;;;8.57;3.30;;;;;;;15.00;83.46;98460.72;4488489;32;20085;-87
2023/05/18 11:20:05;;;;;;;8.95;3.92;;;;;;;15.55;81.56;98462.88;4488125;31;20100;-87
2023/05/18 11:22:41;;;;;;;7.43;3.62;;;;;;;15.29;82.68;98461.72;4487343;32;20113;-86
2023/05/18 11:25:31;;;;;;;7.50;3.37;;;;;;;14.59;84.38;98466.34;4469943;32;20625;-88
2023/05/18 11:28:06;;;;;;;8.98;3.62;;;;;;;15.22;82.44;98465.59;4486507;31;20474;-87
2023/05/18 11:30:35;;;;;;;9.95;4.25;;;;;;;15.28;80.59;98462.63;4488920;32;20149;-85
2023/05/18 11:33:17;;;;;;;9.20;3.65;;;;;;;15.24;81.49;98474.97;4472054;32;20156;-85